sensor_id;sensor_type;location;lat;lon;timestamp;P1;durP1;ratioP1;P2;durP2;ratioP2
77310;SDS011;66371;52.714;5.074;2023-07-31T00:02:01;7.15;;;3.17;;
77310;SDS011;66371;52.714;5.074;2023-07-31T00:04:26;5.00;;;2.88;;
77310;SDS011;66371;52.714;5.074;2023-07-31T00:06:52;7.40;;;2.95;;
77310;SDS011;66371;52.714;5.074;2023-07-31T00:09:17;6.13;;;3.70;;
77310;SDS011;66371;52.714;5.074;2023-07-31T00:11:43;4.40;;;2.70;;
77310;SDS011;66371;52.714;5.074;2023-07-31T00:14:08;6.73;;;3.17;;
77310;SDS011;66371;52.714;5.074;2023-07-31T00:16:33;7.10;;;2.83;;
77310;SDS011;66371;52.714;5.074;2023-07-31T00:18:59;7.90;;;3.22;;
77310;SDS011;66371;52.714;5.074;2023-07-31T00:21:24;4.67;;;3.33;;
77310;SDS011;66371;52.714;5.074;2023-07-31T00:23:49;3.90;;;2.53;;
77310;SDS011;66371;52.714;5.074;2023-07-31T00:26:15;7.13;;;3.88;;
77310;SDS011;66371;52.714;5.074;2023-07-31T00:28:40;5.72;;;3.03;;
77310;SDS011;66371;52.714;5.074;2023-07-31T00:31:06;4.60;;;2.87;;
77310;SDS011;66371;52.714;5.074;2023-07-31T00:33:31;6.38;;;3.13;;
77310;SDS011;66371;52.714;5.074;2023-07-31T00:35:57;3.17;;;2.67;;
77310;SDS011;66371;52.714;5.074;2023-07-31T00:38:22;4.57;;;2.72;;
77310;SDS011;66371;52.714;5.074;2023-07-31T00:40:47;3.05;;;2.67;;
77310;SDS011;66371;52.714;5.074;2023-07-31T00:43:13;4.97;;;3.03;;
77310;SDS011;66371;52.714;5.074;2023-07-31T00:45:38;5.40;;;3.43;;
77310;SDS011;66371;52.714;5.074;2023-07-31T00:48:04;3.67;;;3.45;;
77310;SDS011;66371;52.714;5.074;2023-07-31T00:50:31;3.67;;;2.50;;
77310;SDS011;66371;52.714;5.074;2023-07-31T00:52:56;4.00;;;3.70;;
77310;SDS011;66371;52.714;5.074;2023-07-31T00:55:22;5.13;;;3.65;;
77310;SDS011;66371;52.714;5.074;2023-07-31T00:57:48;6.30;;;5.88;;
77310;SDS011;66371;52.714;5.074;2023-07-31T01:00:14;5.80;;;5.40;;
77310;SDS011;66371;52.714;5.074;2023-07-31T01:02:39;4.87;;;3.57;;
77310;SDS011;66371;52.714;5.074;2023-07-31T01:05:05;6.13;;;4.78;;
77310;SDS011;66371;52.714;5.074;2023-07-31T01:07:35;6.82;;;4.90;;
77310;SDS011;66371;52.714;5.074;2023-07-31T01:10:04;5.15;;;3.13;;
77310;SDS011;66371;52.714;5.074;2023-07-31T01:12:36;9.95;;;5.72;;
77310;SDS011;66371;52.714;5.074;2023-07-31T01:17:29;10.80;;;4.65;;
77310;SDS011;66371;52.714;5.074;2023-07-31T01:19:55;6.93;;;6.25;;
77310;SDS011;66371;52.714;5.074;2023-07-31T01:28:20;10.77;;;5.90;;
77310;SDS011;66371;52.714;5.074;2023-07-31T01:30:50;10.32;;;4.75;;
77310;SDS011;66371;52.714;5.074;2023-07-31T01:33:18;11.63;;;8.65;;
77310;SDS011;66371;52.714;5.074;2023-07-31T01:35:44;14.02;;;4.55;;
77310;SDS011;66371;52.714;5.074;2023-07-31T01:38:11;10.43;;;6.05;;
77310;SDS011;66371;52.714;5.074;2023-07-31T01:40:37;10.27;;;4.72;;
77310;SDS011;66371;52.714;5.074;2023-07-31T01:43:02;7.60;;;4.18;;
77310;SDS011;66371;52.714;5.074;2023-07-31T01:45:28;12.75;;;5.53;;
77310;SDS011;66371;52.714;5.074;2023-07-31T01:47:53;8.47;;;4.97;;
77310;SDS011;66371;52.714;5.074;2023-07-31T01:50:18;10.60;;;4.00;;
77310;SDS011;66371;52.714;5.074;2023-07-31T01:52:44;9.65;;;5.15;;
77310;SDS011;66371;52.714;5.074;2023-07-31T01:55:09;9.47;;;4.53;;
77310;SDS011;66371;52.714;5.074;2023-07-31T01:57:36;10.82;;;8.25;;
77310;SDS011;66371;52.714;5.074;2023-07-31T02:00:02;6.53;;;5.53;;
77310;SDS011;66371;52.714;5.074;2023-07-31T02:02:27;8.90;;;5.55;;
77310;SDS011;66371;52.714;5.074;2023-07-31T02:04:52;7.80;;;4.67;;
77310;SDS011;66371;52.714;5.074;2023-07-31T02:07:18;14.43;;;6.50;;
77310;SDS011;66371;52.714;5.074;2023-07-31T02:09:43;10.87;;;6.20;;
77310;SDS011;66371;52.714;5.074;2023-07-31T02:12:09;10.57;;;6.67;;
77310;SDS011;66371;52.714;5.074;2023-07-31T02:14:34;10.57;;;4.47;;
77310;SDS011;66371;52.714;5.074;2023-07-31T02:17:00;10.95;;;5.13;;
77310;SDS011;66371;52.714;5.074;2023-07-31T02:19:25;8.55;;;5.28;;
77310;SDS011;66371;52.714;5.074;2023-07-31T02:21:51;10.52;;;5.03;;
77310;SDS011;66371;52.714;5.074;2023-07-31T02:24:16;9.38;;;6.85;;
77310;SDS011;66371;52.714;5.074;2023-07-31T02:26:41;9.33;;;4.40;;
77310;SDS011;66371;52.714;5.074;2023-07-31T02:29:07;12.05;;;6.20;;
77310;SDS011;66371;52.714;5.074;2023-07-31T02:31:33;13.63;;;7.13;;
77310;SDS011;66371;52.714;5.074;2023-07-31T02:33:59;11.20;;;5.82;;
77310;SDS011;66371;52.714;5.074;2023-07-31T02:36:24;10.93;;;6.90;;
77310;SDS011;66371;52.714;5.074;2023-07-31T02:38:49;13.32;;;7.35;;
77310;SDS011;66371;52.714;5.074;2023-07-31T02:41:15;11.73;;;7.67;;
77310;SDS011;66371;52.714;5.074;2023-07-31T02:43:40;12.50;;;4.93;;
77310;SDS011;66371;52.714;5.074;2023-07-31T02:46:05;13.93;;;6.80;;
77310;SDS011;66371;52.714;5.074;2023-07-31T02:48:31;16.45;;;7.20;;
77310;SDS011;66371;52.714;5.074;2023-07-31T02:50:56;11.70;;;5.15;;
77310;SDS011;66371;52.714;5.074;2023-07-31T02:53:22;14.90;;;7.50;;
77310;SDS011;66371;52.714;5.074;2023-07-31T02:55:48;15.93;;;7.28;;
77310;SDS011;66371;52.714;5.074;2023-07-31T02:58:13;11.90;;;5.63;;
77310;SDS011;66371;52.714;5.074;2023-07-31T03:00:42;19.30;;;6.47;;
77310;SDS011;66371;52.714;5.074;2023-07-31T03:03:08;19.15;;;7.45;;
77310;SDS011;66371;52.714;5.074;2023-07-31T03:05:34;16.27;;;10.03;;
77310;SDS011;66371;52.714;5.074;2023-07-31T03:07:59;19.63;;;7.50;;
77310;SDS011;66371;52.714;5.074;2023-07-31T03:10:24;15.88;;;6.20;;
77310;SDS011;66371;52.714;5.074;2023-07-31T03:12:50;17.08;;;6.68;;
77310;SDS011;66371;52.714;5.074;2023-07-31T03:15:15;15.30;;;6.90;;
77310;SDS011;66371;52.714;5.074;2023-07-31T03:17:40;13.48;;;6.35;;
77310;SDS011;66371;52.714;5.074;2023-07-31T03:20:06;16.70;;;7.07;;
77310;SDS011;66371;52.714;5.074;2023-07-31T03:22:32;12.77;;;7.43;;
77310;SDS011;66371;52.714;5.074;2023-07-31T03:24:57;17.90;;;7.93;;
77310;SDS011;66371;52.714;5.074;2023-07-31T03:27:22;13.97;;;6.10;;
77310;SDS011;66371;52.714;5.074;2023-07-31T03:29:48;14.50;;;8.27;;
77310;SDS011;66371;52.714;5.074;2023-07-31T03:32:14;20.65;;;8.05;;
77310;SDS011;66371;52.714;5.074;2023-07-31T03:34:40;13.35;;;7.20;;
77310;SDS011;66371;52.714;5.074;2023-07-31T03:37:05;14.17;;;7.23;;
77310;SDS011;66371;52.714;5.074;2023-07-31T03:39:31;19.13;;;7.53;;
77310;SDS011;66371;52.714;5.074;2023-07-31T03:41:56;14.20;;;6.17;;
77310;SDS011;66371;52.714;5.074;2023-07-31T03:44:21;16.93;;;7.03;;
77310;SDS011;66371;52.714;5.074;2023-07-31T03:46:47;16.27;;;6.80;;
77310;SDS011;66371;52.714;5.074;2023-07-31T03:49:12;16.40;;;7.38;;
77310;SDS011;66371;52.714;5.074;2023-07-31T03:51:38;17.30;;;7.77;;
77310;SDS011;66371;52.714;5.074;2023-07-31T03:54:03;17.07;;;6.20;;
77310;SDS011;66371;52.714;5.074;2023-07-31T03:56:28;14.87;;;5.67;;
77310;SDS011;66371;52.714;5.074;2023-07-31T03:58:54;19.08;;;6.05;;
77310;SDS011;66371;52.714;5.074;2023-07-31T04:01:19;18.55;;;6.95;;
77310;SDS011;66371;52.714;5.074;2023-07-31T04:03:45;15.07;;;6.78;;
77310;SDS011;66371;52.714;5.074;2023-07-31T04:06:10;16.77;;;7.67;;
77310;SDS011;66371;52.714;5.074;2023-07-31T04:08:35;16.98;;;7.07;;
77310;SDS011;66371;52.714;5.074;2023-07-31T04:11:01;11.93;;;8.03;;
77310;SDS011;66371;52.714;5.074;2023-07-31T04:13:26;15.32;;;6.63;;
77310;SDS011;66371;52.714;5.074;2023-07-31T04:15:53;14.32;;;6.63;;
77310;SDS011;66371;52.714;5.074;2023-07-31T04:18:19;16.58;;;7.50;;
77310;SDS011;66371;52.714;5.074;2023-07-31T04:20:45;15.65;;;6.70;;
77310;SDS011;66371;52.714;5.074;2023-07-31T04:23:10;17.52;;;6.63;;
77310;SDS011;66371;52.714;5.074;2023-07-31T04:25:35;14.60;;;7.35;;
77310;SDS011;66371;52.714;5.074;2023-07-31T04:28:01;18.08;;;6.18;;
77310;SDS011;66371;52.714;5.074;2023-07-31T04:30:26;16.23;;;6.72;;
77310;SDS011;66371;52.714;5.074;2023-07-31T04:32:52;17.13;;;6.50;;
77310;SDS011;66371;52.714;5.074;2023-07-31T04:35:17;14.93;;;6.50;;
77310;SDS011;66371;52.714;5.074;2023-07-31T04:37:43;13.25;;;8.32;;
77310;SDS011;66371;52.714;5.074;2023-07-31T04:40:09;18.00;;;7.18;;
77310;SDS011;66371;52.714;5.074;2023-07-31T04:42:35;14.07;;;5.88;;
77310;SDS011;66371;52.714;5.074;2023-07-31T04:45:00;13.40;;;7.03;;
77310;SDS011;66371;52.714;5.074;2023-07-31T04:47:26;13.33;;;8.40;;
77310;SDS011;66371;52.714;5.074;2023-07-31T04:49:51;14.73;;;5.93;;
77310;SDS011;66371;52.714;5.074;2023-07-31T04:52:16;13.32;;;8.15;;
77310;SDS011;66371;52.714;5.074;2023-07-31T04:54:42;12.73;;;6.20;;
77310;SDS011;66371;52.714;5.074;2023-07-31T04:57:07;13.33;;;6.23;;
77310;SDS011;66371;52.714;5.074;2023-07-31T04:59:32;11.35;;;4.97;;
77310;SDS011;66371;52.714;5.074;2023-07-31T05:01:58;10.23;;;5.17;;
77310;SDS011;66371;52.714;5.074;2023-07-31T05:04:23;12.33;;;6.10;;
77310;SDS011;66371;52.714;5.074;2023-07-31T05:06:48;14.85;;;7.05;;
77310;SDS011;66371;52.714;5.074;2023-07-31T05:09:14;13.55;;;5.43;;
77310;SDS011;66371;52.714;5.074;2023-07-31T05:11:39;17.55;;;6.90;;
77310;SDS011;66371;52.714;5.074;2023-07-31T05:14:05;14.02;;;5.95;;
77310;SDS011;66371;52.714;5.074;2023-07-31T05:16:31;14.45;;;6.30;;
77310;SDS011;66371;52.714;5.074;2023-07-31T05:18:56;10.93;;;7.57;;
77310;SDS011;66371;52.714;5.074;2023-07-31T05:21:22;13.88;;;8.45;;
77310;SDS011;66371;52.714;5.074;2023-07-31T05:23:47;9.77;;;4.95;;
77310;SDS011;66371;52.714;5.074;2023-07-31T05:26:13;9.90;;;4.75;;
77310;SDS011;66371;52.714;5.074;2023-07-31T05:28:38;7.13;;;4.45;;
77310;SDS011;66371;52.714;5.074;2023-07-31T05:31:04;6.72;;;5.00;;
77310;SDS011;66371;52.714;5.074;2023-07-31T05:33:30;6.60;;;3.53;;
77310;SDS011;66371;52.714;5.074;2023-07-31T05:35:56;4.95;;;4.18;;
77310;SDS011;66371;52.714;5.074;2023-07-31T05:38:21;5.35;;;3.53;;
77310;SDS011;66371;52.714;5.074;2023-07-31T05:40:47;6.82;;;5.25;;
77310;SDS011;66371;52.714;5.074;2023-07-31T05:43:12;6.68;;;5.00;;
77310;SDS011;66371;52.714;5.074;2023-07-31T05:45:38;5.60;;;3.08;;
77310;SDS011;66371;52.714;5.074;2023-07-31T05:48:05;6.68;;;6.07;;
77310;SDS011;66371;52.714;5.074;2023-07-31T05:50:31;3.80;;;3.13;;
77310;SDS011;66371;52.714;5.074;2023-07-31T05:52:56;5.20;;;3.30;;
77310;SDS011;66371;52.714;5.074;2023-07-31T05:55:22;4.10;;;3.53;;
77310;SDS011;66371;52.714;5.074;2023-07-31T05:57:48;4.10;;;3.45;;
77310;SDS011;66371;52.714;5.074;2023-07-31T06:00:14;5.70;;;3.13;;
77310;SDS011;66371;52.714;5.074;2023-07-31T06:02:39;3.90;;;3.38;;
77310;SDS011;66371;52.714;5.074;2023-07-31T06:05:05;3.07;;;2.70;;
77310;SDS011;66371;52.714;5.074;2023-07-31T06:07:33;3.25;;;2.45;;
77310;SDS011;66371;52.714;5.074;2023-07-31T06:09:59;3.33;;;2.22;;
77310;SDS011;66371;52.714;5.074;2023-07-31T06:12:29;3.00;;;1.88;;
77310;SDS011;66371;52.714;5.074;2023-07-31T06:14:55;3.80;;;3.03;;
77310;SDS011;66371;52.714;5.074;2023-07-31T06:17:20;3.47;;;2.33;;
77310;SDS011;66371;52.714;5.074;2023-07-31T06:19:46;5.43;;;4.97;;
77310;SDS011;66371;52.714;5.074;2023-07-31T06:22:12;3.17;;;2.97;;
77310;SDS011;66371;52.714;5.074;2023-07-31T06:24:37;3.08;;;2.72;;
77310;SDS011;66371;52.714;5.074;2023-07-31T06:27:03;2.33;;;2.13;;
77310;SDS011;66371;52.714;5.074;2023-07-31T06:29:29;3.50;;;2.85;;
77310;SDS011;66371;52.714;5.074;2023-07-31T06:31:55;2.97;;;2.72;;
77310;SDS011;66371;52.714;5.074;2023-07-31T06:34:20;3.75;;;2.22;;
77310;SDS011;66371;52.714;5.074;2023-07-31T06:36:45;2.97;;;2.45;;
77310;SDS011;66371;52.714;5.074;2023-07-31T06:39:11;3.80;;;2.25;;
77310;SDS011;66371;52.714;5.074;2023-07-31T06:41:36;3.20;;;2.70;;
77310;SDS011;66371;52.714;5.074;2023-07-31T06:44:02;5.70;;;3.47;;
77310;SDS011;66371;52.714;5.074;2023-07-31T06:46:28;3.17;;;2.72;;
77310;SDS011;66371;52.714;5.074;2023-07-31T06:48:53;4.47;;;3.03;;
77310;SDS011;66371;52.714;5.074;2023-07-31T06:51:18;4.20;;;2.87;;
77310;SDS011;66371;52.714;5.074;2023-07-31T06:53:44;4.85;;;4.35;;
77310;SDS011;66371;52.714;5.074;2023-07-31T06:56:10;7.82;;;4.13;;
77310;SDS011;66371;52.714;5.074;2023-07-31T06:58:35;5.97;;;2.25;;
77310;SDS011;66371;52.714;5.074;2023-07-31T07:01:01;6.60;;;3.07;;
77310;SDS011;66371;52.714;5.074;2023-07-31T07:03:27;5.22;;;2.92;;
77310;SDS011;66371;52.714;5.074;2023-07-31T07:05:52;4.93;;;3.80;;
77310;SDS011;66371;52.714;5.074;2023-07-31T07:08:18;3.77;;;3.20;;
77310;SDS011;66371;52.714;5.074;2023-07-31T07:10:43;6.32;;;2.45;;
77310;SDS011;66371;52.714;5.074;2023-07-31T07:13:08;4.18;;;2.85;;
77310;SDS011;66371;52.714;5.074;2023-07-31T07:15:34;4.40;;;4.03;;
77310;SDS011;66371;52.714;5.074;2023-07-31T07:18:00;5.10;;;3.33;;
77310;SDS011;66371;52.714;5.074;2023-07-31T07:20:25;5.80;;;2.85;;
77310;SDS011;66371;52.714;5.074;2023-07-31T07:22:51;5.03;;;2.78;;
77310;SDS011;66371;52.714;5.074;2023-07-31T07:25:16;7.37;;;3.37;;
77310;SDS011;66371;52.714;5.074;2023-07-31T07:27:42;7.25;;;4.13;;
77310;SDS011;66371;52.714;5.074;2023-07-31T07:30:07;6.45;;;3.03;;
77310;SDS011;66371;52.714;5.074;2023-07-31T07:32:33;4.63;;;3.05;;
77310;SDS011;66371;52.714;5.074;2023-07-31T07:34:58;7.00;;;6.33;;
77310;SDS011;66371;52.714;5.074;2023-07-31T07:37:23;4.97;;;2.38;;
77310;SDS011;66371;52.714;5.074;2023-07-31T07:39:49;4.20;;;2.63;;
77310;SDS011;66371;52.714;5.074;2023-07-31T07:42:14;5.30;;;3.00;;
77310;SDS011;66371;52.714;5.074;2023-07-31T07:44:39;4.47;;;2.75;;
77310;SDS011;66371;52.714;5.074;2023-07-31T07:47:05;6.28;;;5.63;;
77310;SDS011;66371;52.714;5.074;2023-07-31T07:49:36;3.53;;;3.22;;
77310;SDS011;66371;52.714;5.074;2023-07-31T07:52:02;4.95;;;2.40;;
77310;SDS011;66371;52.714;5.074;2023-07-31T07:54:28;6.78;;;3.20;;
77310;SDS011;66371;52.714;5.074;2023-07-31T07:56:53;4.80;;;2.63;;
77310;SDS011;66371;52.714;5.074;2023-07-31T07:59:18;4.10;;;2.50;;
77310;SDS011;66371;52.714;5.074;2023-07-31T08:01:44;5.30;;;2.73;;
77310;SDS011;66371;52.714;5.074;2023-07-31T08:04:09;6.05;;;2.05;;
77310;SDS011;66371;52.714;5.074;2023-07-31T08:06:35;5.72;;;2.60;;
77310;SDS011;66371;52.714;5.074;2023-07-31T08:09:00;4.50;;;2.15;;
77310;SDS011;66371;52.714;5.074;2023-07-31T08:11:30;3.55;;;1.92;;
77310;SDS011;66371;52.714;5.074;2023-07-31T08:13:56;5.82;;;3.38;;
77310;SDS011;66371;52.714;5.074;2023-07-31T08:16:21;2.43;;;2.00;;
77310;SDS011;66371;52.714;5.074;2023-07-31T08:18:46;3.80;;;2.97;;
77310;SDS011;66371;52.714;5.074;2023-07-31T08:21:12;5.50;;;2.87;;
77310;SDS011;66371;52.714;5.074;2023-07-31T08:23:37;3.05;;;2.53;;
77310;SDS011;66371;52.714;5.074;2023-07-31T08:26:02;3.87;;;2.57;;
77310;SDS011;66371;52.714;5.074;2023-07-31T08:28:28;4.60;;;4.30;;
77310;SDS011;66371;52.714;5.074;2023-07-31T08:30:53;2.93;;;2.63;;
77310;SDS011;66371;52.714;5.074;2023-07-31T08:33:18;4.07;;;2.97;;
77310;SDS011;66371;52.714;5.074;2023-07-31T08:35:44;5.70;;;2.87;;
77310;SDS011;66371;52.714;5.074;2023-07-31T08:38:09;5.20;;;2.87;;
77310;SDS011;66371;52.714;5.074;2023-07-31T08:40:38;2.73;;;2.37;;
77310;SDS011;66371;52.714;5.074;2023-07-31T08:43:03;3.17;;;2.50;;
77310;SDS011;66371;52.714;5.074;2023-07-31T08:45:29;4.00;;;2.65;;
77310;SDS011;66371;52.714;5.074;2023-07-31T08:47:56;5.38;;;2.50;;
77310;SDS011;66371;52.714;5.074;2023-07-31T08:50:22;6.13;;;3.35;;
77310;SDS011;66371;52.714;5.074;2023-07-31T08:52:48;5.40;;;3.08;;
77310;SDS011;66371;52.714;5.074;2023-07-31T08:55:15;10.20;;;4.75;;
77310;SDS011;66371;52.714;5.074;2023-07-31T08:57:40;6.40;;;3.22;;
77310;SDS011;66371;52.714;5.074;2023-07-31T09:00:07;5.13;;;2.83;;
77310;SDS011;66371;52.714;5.074;2023-07-31T09:02:38;4.63;;;4.22;;
77310;SDS011;66371;52.714;5.074;2023-07-31T09:05:10;9.00;;;6.18;;
77310;SDS011;66371;52.714;5.074;2023-07-31T09:07:36;8.50;;;3.95;;
77310;SDS011;66371;52.714;5.074;2023-07-31T09:10:03;7.15;;;3.08;;
77310;SDS011;66371;52.714;5.074;2023-07-31T09:12:29;4.43;;;3.28;;
77310;SDS011;66371;52.714;5.074;2023-07-31T09:14:55;8.23;;;3.63;;
77310;SDS011;66371;52.714;5.074;2023-07-31T09:17:33;5.80;;;4.75;;
77310;SDS011;66371;52.714;5.074;2023-07-31T09:20:21;7.88;;;3.28;;
77310;SDS011;66371;52.714;5.074;2023-07-31T09:22:47;9.88;;;3.35;;
77310;SDS011;66371;52.714;5.074;2023-07-31T09:25:23;8.60;;;2.72;;
77310;SDS011;66371;52.714;5.074;2023-07-31T09:27:57;6.30;;;3.33;;
77310;SDS011;66371;52.714;5.074;2023-07-31T09:32:49;6.28;;;2.70;;
77310;SDS011;66371;52.714;5.074;2023-07-31T09:35:29;3.95;;;2.97;;
77310;SDS011;66371;52.714;5.074;2023-07-31T09:37:59;7.80;;;3.55;;
77310;SDS011;66371;52.714;5.074;2023-07-31T09:40:29;5.15;;;2.75;;
77310;SDS011;66371;52.714;5.074;2023-07-31T09:42:56;4.03;;;2.85;;
77310;SDS011;66371;52.714;5.074;2023-07-31T09:45:23;7.85;;;4.05;;
77310;SDS011;66371;52.714;5.074;2023-07-31T09:47:48;4.50;;;3.60;;
77310;SDS011;66371;52.714;5.074;2023-07-31T09:50:14;5.50;;;3.03;;
77310;SDS011;66371;52.714;5.074;2023-07-31T09:52:41;6.03;;;2.97;;
77310;SDS011;66371;52.714;5.074;2023-07-31T09:55:07;6.80;;;3.42;;
77310;SDS011;66371;52.714;5.074;2023-07-31T09:57:33;8.35;;;3.85;;
77310;SDS011;66371;52.714;5.074;2023-07-31T10:00:02;6.38;;;2.25;;
77310;SDS011;66371;52.714;5.074;2023-07-31T10:02:27;12.07;;;2.92;;
77310;SDS011;66371;52.714;5.074;2023-07-31T10:04:55;7.00;;;3.35;;
77310;SDS011;66371;52.714;5.074;2023-07-31T10:07:23;6.88;;;3.75;;
77310;SDS011;66371;52.714;5.074;2023-07-31T10:09:51;6.22;;;3.13;;
77310;SDS011;66371;52.714;5.074;2023-07-31T10:12:19;6.72;;;2.97;;
77310;SDS011;66371;52.714;5.074;2023-07-31T10:14:46;5.07;;;3.10;;
77310;SDS011;66371;52.714;5.074;2023-07-31T10:17:12;6.90;;;3.10;;
77310;SDS011;66371;52.714;5.074;2023-07-31T10:19:39;3.35;;;2.95;;
77310;SDS011;66371;52.714;5.074;2023-07-31T10:22:06;4.07;;;2.47;;
77310;SDS011;66371;52.714;5.074;2023-07-31T10:24:33;6.25;;;5.85;;
77310;SDS011;66371;52.714;5.074;2023-07-31T10:27:00;6.25;;;3.85;;
77310;SDS011;66371;52.714;5.074;2023-07-31T10:29:27;5.38;;;2.88;;
77310;SDS011;66371;52.714;5.074;2023-07-31T10:31:54;3.60;;;2.25;;
77310;SDS011;66371;52.714;5.074;2023-07-31T10:34:23;3.25;;;2.90;;
77310;SDS011;66371;52.714;5.074;2023-07-31T10:36:48;5.00;;;3.78;;
77310;SDS011;66371;52.714;5.074;2023-07-31T10:39:33;5.90;;;5.57;;
77310;SDS011;66371;52.714;5.074;2023-07-31T10:42:09;8.40;;;5.80;;
77310;SDS011;66371;52.714;5.074;2023-07-31T10:44:38;6.93;;;3.78;;
77310;SDS011;66371;52.714;5.074;2023-07-31T10:47:08;5.63;;;3.38;;
77310;SDS011;66371;52.714;5.074;2023-07-31T10:49:33;4.25;;;3.60;;
77310;SDS011;66371;52.714;5.074;2023-07-31T10:51:59;5.37;;;2.93;;
77310;SDS011;66371;52.714;5.074;2023-07-31T10:54:24;8.25;;;4.05;;
77310;SDS011;66371;52.714;5.074;2023-07-31T10:56:50;9.73;;;3.33;;
77310;SDS011;66371;52.714;5.074;2023-07-31T10:59:15;6.00;;;4.13;;
77310;SDS011;66371;52.714;5.074;2023-07-31T11:01:52;8.27;;;3.58;;
77310;SDS011;66371;52.714;5.074;2023-07-31T11:04:22;8.43;;;3.42;;
77310;SDS011;66371;52.714;5.074;2023-07-31T11:06:58;5.40;;;2.85;;
77310;SDS011;66371;52.714;5.074;2023-07-31T11:09:31;7.75;;;3.25;;
77310;SDS011;66371;52.714;5.074;2023-07-31T11:12:01;6.38;;;3.33;;
77310;SDS011;66371;52.714;5.074;2023-07-31T11:14:26;7.25;;;2.80;;
77310;SDS011;66371;52.714;5.074;2023-07-31T11:16:51;11.20;;;3.80;;
77310;SDS011;66371;52.714;5.074;2023-07-31T11:19:26;8.60;;;3.50;;
77310;SDS011;66371;52.714;5.074;2023-07-31T11:21:52;6.95;;;3.30;;
77310;SDS011;66371;52.714;5.074;2023-07-31T11:24:18;5.90;;;3.70;;
77310;SDS011;66371;52.714;5.074;2023-07-31T11:26:50;7.80;;;3.53;;
77310;SDS011;66371;52.714;5.074;2023-07-31T11:29:17;9.38;;;3.40;;
77310;SDS011;66371;52.714;5.074;2023-07-31T11:31:44;5.97;;;4.38;;
77310;SDS011;66371;52.714;5.074;2023-07-31T11:34:10;5.70;;;2.70;;
77310;SDS011;66371;52.714;5.074;2023-07-31T11:36:35;6.72;;;2.92;;
77310;SDS011;66371;52.714;5.074;2023-07-31T11:39:09;7.22;;;2.83;;
77310;SDS011;66371;52.714;5.074;2023-07-31T11:41:36;7.47;;;3.17;;
77310;SDS011;66371;52.714;5.074;2023-07-31T11:44:01;8.90;;;3.95;;
77310;SDS011;66371;52.714;5.074;2023-07-31T11:46:27;6.43;;;3.17;;
77310;SDS011;66371;52.714;5.074;2023-07-31T11:48:58;6.03;;;3.13;;
77310;SDS011;66371;52.714;5.074;2023-07-31T11:51:24;5.53;;;3.85;;
77310;SDS011;66371;52.714;5.074;2023-07-31T11:53:52;6.32;;;4.32;;
77310;SDS011;66371;52.714;5.074;2023-07-31T11:56:21;8.38;;;4.57;;
77310;SDS011;66371;52.714;5.074;2023-07-31T11:58:52;7.07;;;3.22;;
77310;SDS011;66371;52.714;5.074;2023-07-31T12:03:47;6.30;;;3.35;;
77310;SDS011;66371;52.714;5.074;2023-07-31T12:06:12;8.02;;;3.08;;
77310;SDS011;66371;52.714;5.074;2023-07-31T12:08:38;12.80;;;3.22;;
77310;SDS011;66371;52.714;5.074;2023-07-31T12:11:04;12.75;;;5.82;;
77310;SDS011;66371;52.714;5.074;2023-07-31T12:13:31;9.77;;;4.55;;
77310;SDS011;66371;52.714;5.074;2023-07-31T12:15:57;10.30;;;3.65;;
77310;SDS011;66371;52.714;5.074;2023-07-31T12:18:29;9.75;;;3.17;;
77310;SDS011;66371;52.714;5.074;2023-07-31T12:21:02;10.80;;;3.50;;
77310;SDS011;66371;52.714;5.074;2023-07-31T12:23:31;11.02;;;4.75;;
77310;SDS011;66371;52.714;5.074;2023-07-31T12:26:01;7.85;;;3.42;;
77310;SDS011;66371;52.714;5.074;2023-07-31T12:28:26;9.93;;;4.45;;
77310;SDS011;66371;52.714;5.074;2023-07-31T12:30:52;7.63;;;3.42;;
77310;SDS011;66371;52.714;5.074;2023-07-31T12:33:29;9.43;;;3.83;;
77310;SDS011;66371;52.714;5.074;2023-07-31T12:36:03;10.75;;;3.47;;
77310;SDS011;66371;52.714;5.074;2023-07-31T12:38:31;7.60;;;3.83;;
77310;SDS011;66371;52.714;5.074;2023-07-31T12:40:56;10.23;;;3.80;;
77310;SDS011;66371;52.714;5.074;2023-07-31T12:43:22;9.70;;;3.75;;
77310;SDS011;66371;52.714;5.074;2023-07-31T12:45:47;8.80;;;3.60;;
77310;SDS011;66371;52.714;5.074;2023-07-31T12:48:13;10.18;;;3.72;;
77310;SDS011;66371;52.714;5.074;2023-07-31T12:50:38;11.63;;;4.47;;
77310;SDS011;66371;52.714;5.074;2023-07-31T12:53:04;8.70;;;4.22;;
77310;SDS011;66371;52.714;5.074;2023-07-31T12:55:30;6.32;;;3.38;;
77310;SDS011;66371;52.714;5.074;2023-07-31T12:57:55;7.80;;;3.15;;
77310;SDS011;66371;52.714;5.074;2023-07-31T13:00:21;10.73;;;3.63;;
77310;SDS011;66371;52.714;5.074;2023-07-31T13:02:47;7.70;;;3.42;;
77310;SDS011;66371;52.714;5.074;2023-07-31T13:05:12;8.85;;;5.82;;
77310;SDS011;66371;52.714;5.074;2023-07-31T13:07:38;8.90;;;3.53;;
77310;SDS011;66371;52.714;5.074;2023-07-31T13:10:04;11.68;;;4.13;;
77310;SDS011;66371;52.714;5.074;2023-07-31T13:12:31;10.23;;;3.85;;
77310;SDS011;66371;52.714;5.074;2023-07-31T13:14:56;8.13;;;3.58;;
77310;SDS011;66371;52.714;5.074;2023-07-31T13:17:22;11.60;;;4.45;;
77310;SDS011;66371;52.714;5.074;2023-07-31T13:19:47;11.18;;;4.35;;
77310;SDS011;66371;52.714;5.074;2023-07-31T13:22:12;9.03;;;6.00;;
77310;SDS011;66371;52.714;5.074;2023-07-31T13:24:38;7.97;;;4.10;;
77310;SDS011;66371;52.714;5.074;2023-07-31T13:27:03;11.50;;;6.05;;
77310;SDS011;66371;52.714;5.074;2023-07-31T13:29:29;8.80;;;3.95;;
77310;SDS011;66371;52.714;5.074;2023-07-31T13:31:55;10.27;;;6.45;;
77310;SDS011;66371;52.714;5.074;2023-07-31T13:34:20;7.55;;;3.92;;
77310;SDS011;66371;52.714;5.074;2023-07-31T13:36:46;9.52;;;5.80;;
77310;SDS011;66371;52.714;5.074;2023-07-31T13:39:11;10.27;;;3.90;;
77310;SDS011;66371;52.714;5.074;2023-07-31T13:41:37;8.27;;;6.28;;
77310;SDS011;66371;52.714;5.074;2023-07-31T13:44:02;8.70;;;3.03;;
77310;SDS011;66371;52.714;5.074;2023-07-31T13:46:28;8.32;;;3.50;;
77310;SDS011;66371;52.714;5.074;2023-07-31T13:48:53;5.57;;;3.58;;
77310;SDS011;66371;52.714;5.074;2023-07-31T13:51:20;8.50;;;3.13;;
77310;SDS011;66371;52.714;5.074;2023-07-31T13:53:46;7.20;;;4.00;;
77310;SDS011;66371;52.714;5.074;2023-07-31T13:56:11;9.43;;;4.03;;
77310;SDS011;66371;52.714;5.074;2023-07-31T13:58:37;8.68;;;4.32;;
77310;SDS011;66371;52.714;5.074;2023-07-31T14:01:02;9.33;;;3.67;;
77310;SDS011;66371;52.714;5.074;2023-07-31T14:03:28;7.03;;;3.78;;
77310;SDS011;66371;52.714;5.074;2023-07-31T14:05:54;6.72;;;4.13;;
77310;SDS011;66371;52.714;5.074;2023-07-31T14:08:20;7.65;;;3.53;;
77310;SDS011;66371;52.714;5.074;2023-07-31T14:10:46;6.35;;;2.88;;
77310;SDS011;66371;52.714;5.074;2023-07-31T14:13:11;6.60;;;3.33;;
77310;SDS011;66371;52.714;5.074;2023-07-31T14:15:37;6.47;;;5.37;;
77310;SDS011;66371;52.714;5.074;2023-07-31T14:18:02;6.37;;;5.50;;
77310;SDS011;66371;52.714;5.074;2023-07-31T14:20:28;8.65;;;5.95;;
77310;SDS011;66371;52.714;5.074;2023-07-31T14:22:53;9.15;;;4.15;;
77310;SDS011;66371;52.714;5.074;2023-07-31T14:25:19;7.18;;;3.05;;
77310;SDS011;66371;52.714;5.074;2023-07-31T14:27:45;6.72;;;3.15;;
77310;SDS011;66371;52.714;5.074;2023-07-31T14:30:10;7.85;;;4.53;;
77310;SDS011;66371;52.714;5.074;2023-07-31T14:32:36;5.97;;;2.70;;
77310;SDS011;66371;52.714;5.074;2023-07-31T14:35:02;5.65;;;5.07;;
77310;SDS011;66371;52.714;5.074;2023-07-31T14:37:28;4.53;;;2.13;;
77310;SDS011;66371;52.714;5.074;2023-07-31T14:40:02;6.97;;;3.03;;
77310;SDS011;66371;52.714;5.074;2023-07-31T14:42:28;5.15;;;3.42;;
77310;SDS011;66371;52.714;5.074;2023-07-31T14:44:53;5.00;;;2.50;;
77310;SDS011;66371;52.714;5.074;2023-07-31T14:47:18;6.80;;;3.47;;
77310;SDS011;66371;52.714;5.074;2023-07-31T14:49:43;8.03;;;3.70;;
77310;SDS011;66371;52.714;5.074;2023-07-31T14:52:09;7.77;;;3.37;;